Tokuyo Maru No.15 — JD2184 — position and weather

sailwx.info

Track history (hours):
 
Tides and Currents Weather Stations Pressure Air Temp Water Temp Dewpoint Dewpoint Depression Visibility Wind Speed Wind Dir Waves Ship Positions

Tokuyo Maru No.15

Last reported at 2015-Feb-26 22:33 UTC. Time now 2015-Feb-27 00:33 UTC.
Position N 34°33' E 135°21'.

Length 66 m; draft 4.5 m.

Type: Tanker. MMSI: 431402034.

Date/timePositionNaut miles runAvg speedWind from/ knotsBaromVisibWave heightAir tempDewpointWater temp
2015-Feb-26 22:33N 34°33' E 135°21'1 0.7
2015-Feb-26 21:23N 34°32' E 135°20'0 0.0
2015-Feb-26 20:29N 34°32' E 135°20'0 0.0
2015-Feb-26 18:29N 34°32' E 135°20'0 0.0
2015-Feb-26 17:23N 34°32' E 135°20'2 2.5
2015-Feb-26 16:33N 34°31' E 135°18'1312.6
2015-Feb-26 15:32N 34°23' E 135°06'1211.7
2015-Feb-26 14:33N 34°13' E 134°60'  
2015-Feb-19 15:33N 34°57' E 139°43'6 5.9
2015-Feb-19 14:28N 35°01' E 139°50'0 0.0
2015-Feb-19 13:32N 35°01' E 139°50'0 0.1
2015-Feb-19 12:33N 35°01' E 139°50'0 0.0
2015-Feb-19 11:33N 35°01' E 139°50'0 0.0
2015-Feb-19 10:30N 35°01' E 139°50'0 0.0
2015-Feb-19 09:22N 35°01' E 139°50'0 0.1
2015-Feb-19 08:31N 35°01' E 139°50'5 5.1
2015-Feb-19 07:30N 35°00' E 139°43'24010.4
2015-Feb-18 08:33N 34°06' E 134°60'1512.5
2015-Feb-18 07:20N 34°21' E 135°00'1212.7
2015-Feb-18 06:21N 34°28' E 135°12'1011.7
2015-Feb-18 05:29N 34°33' E 135°23'2 1.0
2015-Feb-18 03:28N 34°32' E 135°25'0 0.1
2015-Feb-18 02:33N 34°32' E 135°25'0 0.0
2015-Feb-18 01:24N 34°32' E 135°25'0 0.1
2015-Feb-17 23:22N 34°33' E 135°25'5 5.6
2015-Feb-17 22:33N 34°32' E 135°20'0 0.0
2015-Feb-17 21:33N 34°32' E 135°20'0 0.0
2015-Feb-17 20:24N 34°32' E 135°20'0 0.0
2015-Feb-17 19:32N 34°32' E 135°20'0 0.0
2015-Feb-17 17:32N 34°32' E 135°20'0 0.0
2015-Feb-17 16:23N 34°32' E 135°20'0 0.0
2015-Feb-17 15:33N 34°32' E 135°20'0 0.0
2015-Feb-17 14:33N 34°32' E 135°20'0 0.0
2015-Feb-17 13:33N 34°32' E 135°20'0 0.1
2015-Feb-17 12:29N 34°32' E 135°20'0 0.0
2015-Feb-17 11:33N 34°32' E 135°20'0 0.0
2015-Feb-17 10:33N 34°32' E 135°20'0 0.0
2015-Feb-17 09:33N 34°32' E 135°20'0 0.0
2015-Feb-17 08:33N 34°32' E 135°20'0 0.0
2015-Feb-17 07:33N 34°32' E 135°20'0 0.0
2015-Feb-17 06:26N 34°32' E 135°20'0 0.0
2015-Feb-17 05:33N 34°32' E 135°20'0 0.0
2015-Feb-17 04:32N 34°32' E 135°20'0 0.0
2015-Feb-17 03:32N 34°32' E 135°20'0 0.0
2015-Feb-17 02:33N 34°32' E 135°20'0 0.0
2015-Feb-17 01:34N 34°32' E 135°20'4 3.8
2015-Feb-17 00:33N 34°30' E 135°16'1512.3
2015-Feb-16 23:18N 34°20' E 135°02'912.0
2015-Feb-16 22:33N 34°11' E 134°60'  
Track history (hours):
 
Tides and Currents Weather Stations Pressure Air Temp Water Temp Dewpoint Dewpoint Depression Visibility Wind Speed Wind Dir Waves Ship Positions

Tokuyo Maru No.15

Last reported at 2015-Feb-26 22:33 UTC. Time now 2015-Feb-27 00:33 UTC.
Position N 34°33' E 135°21'.

Length 66 m; draft 4.5 m.

Type: Tanker. MMSI: 431402034.

Date/timePositionNaut miles runAvg speedWind from/ knotsBaromVisibWave heightAir tempDewpointWater temp
2015-Feb-26 22:33N 34°33' E 135°21'1 0.7
2015-Feb-26 21:23N 34°32' E 135°20'0 0.0
2015-Feb-26 20:29N 34°32' E 135°20'0 0.0
2015-Feb-26 18:29N 34°32' E 135°20'0 0.0
2015-Feb-26 17:23N 34°32' E 135°20'2 2.5
2015-Feb-26 16:33N 34°31' E 135°18'1312.6
2015-Feb-26 15:32N 34°23' E 135°06'1211.7
2015-Feb-26 14:33N 34°13' E 134°60'  
2015-Feb-19 15:33N 34°57' E 139°43'6 5.9
2015-Feb-19 14:28N 35°01' E 139°50'0 0.0
2015-Feb-19 13:32N 35°01' E 139°50'0 0.1
2015-Feb-19 12:33N 35°01' E 139°50'0 0.0
2015-Feb-19 11:33N 35°01' E 139°50'0 0.0
2015-Feb-19 10:30N 35°01' E 139°50'0 0.0
2015-Feb-19 09:22N 35°01' E 139°50'0 0.1
2015-Feb-19 08:31N 35°01' E 139°50'5 5.1
2015-Feb-19 07:30N 35°00' E 139°43'24010.4
2015-Feb-18 08:33N 34°06' E 134°60'1512.5
2015-Feb-18 07:20N 34°21' E 135°00'1212.7
2015-Feb-18 06:21N 34°28' E 135°12'1011.7
2015-Feb-18 05:29N 34°33' E 135°23'2 1.0
2015-Feb-18 03:28N 34°32' E 135°25'0 0.1
2015-Feb-18 02:33N 34°32' E 135°25'0 0.0
2015-Feb-18 01:24N 34°32' E 135°25'0 0.1
2015-Feb-17 23:22N 34°33' E 135°25'5 5.6
2015-Feb-17 22:33N 34°32' E 135°20'0 0.0
2015-Feb-17 21:33N 34°32' E 135°20'0 0.0
2015-Feb-17 20:24N 34°32' E 135°20'0 0.0
2015-Feb-17 19:32N 34°32' E 135°20'0 0.0
2015-Feb-17 17:32N 34°32' E 135°20'0 0.0
2015-Feb-17 16:23N 34°32' E 135°20'0 0.0
2015-Feb-17 15:33N 34°32' E 135°20'0 0.0
2015-Feb-17 14:33N 34°32' E 135°20'0 0.0
2015-Feb-17 13:33N 34°32' E 135°20'0 0.1
2015-Feb-17 12:29N 34°32' E 135°20'0 0.0
2015-Feb-17 11:33N 34°32' E 135°20'0 0.0
2015-Feb-17 10:33N 34°32' E 135°20'0 0.0
2015-Feb-17 09:33N 34°32' E 135°20'0 0.0
2015-Feb-17 08:33N 34°32' E 135°20'0 0.0
2015-Feb-17 07:33N 34°32' E 135°20'0 0.0
2015-Feb-17 06:26N 34°32' E 135°20'0 0.0
2015-Feb-17 05:33N 34°32' E 135°20'0 0.0
2015-Feb-17 04:32N 34°32' E 135°20'0 0.0
2015-Feb-17 03:32N 34°32' E 135°20'0 0.0
2015-Feb-17 02:33N 34°32' E 135°20'0 0.0
2015-Feb-17 01:34N 34°32' E 135°20'4 3.8
2015-Feb-17 00:33N 34°30' E 135°16'1512.3
2015-Feb-16 23:18N 34°20' E 135°02'912.0
2015-Feb-16 22:33N 34°11' E 134°60'  

Dump ship's entire track history